sensor_id;sensor_type;location;lat;lon;timestamp;temperature;humidity
63094;DHT22;49183;51.380;0.098;2024-03-22T00:02:15;10.80;87.50
63094;DHT22;49183;51.380;0.098;2024-03-22T00:04:41;10.80;87.60
63094;DHT22;49183;51.380;0.098;2024-03-22T00:07:08;10.70;87.60
63094;DHT22;49183;51.380;0.098;2024-03-22T00:09:35;10.70;87.60
63094;DHT22;49183;51.380;0.098;2024-03-22T00:12:02;10.70;87.60
63094;DHT22;49183;51.380;0.098;2024-03-22T00:14:29;10.70;87.70
63094;DHT22;49183;51.380;0.098;2024-03-22T00:16:56;10.70;87.70
63094;DHT22;49183;51.380;0.098;2024-03-22T00:19:22;10.70;87.70
63094;DHT22;49183;51.380;0.098;2024-03-22T00:21:49;10.70;87.80
63094;DHT22;49183;51.380;0.098;2024-03-22T00:24:16;10.70;87.80
63094;DHT22;49183;51.380;0.098;2024-03-22T00:26:43;10.70;87.80
63094;DHT22;49183;51.380;0.098;2024-03-22T00:29:15;10.70;87.80
63094;DHT22;49183;51.380;0.098;2024-03-22T00:31:42;10.70;87.90
63094;DHT22;49183;51.380;0.098;2024-03-22T00:34:08;10.60;87.90
63094;DHT22;49183;51.380;0.098;2024-03-22T00:36:36;10.70;87.90
63094;DHT22;49183;51.380;0.098;2024-03-22T00:39:03;10.60;88.00
63094;DHT22;49183;51.380;0.098;2024-03-22T00:41:30;10.60;88.00
63094;DHT22;49183;51.380;0.098;2024-03-22T00:43:57;10.60;88.00
63094;DHT22;49183;51.380;0.098;2024-03-22T00:46:24;10.60;88.10
63094;DHT22;49183;51.380;0.098;2024-03-22T00:48:50;10.60;88.10
63094;DHT22;49183;51.380;0.098;2024-03-22T00:51:17;10.60;88.20
63094;DHT22;49183;51.380;0.098;2024-03-22T00:53:44;10.60;88.20
63094;DHT22;49183;51.380;0.098;2024-03-22T00:56:11;10.60;88.20
63094;DHT22;49183;51.380;0.098;2024-03-22T00:58:38;10.60;88.20
63094;DHT22;49183;51.380;0.098;2024-03-22T01:01:04;10.60;88.30
63094;DHT22;49183;51.380;0.098;2024-03-22T01:03:32;10.60;88.30
63094;DHT22;49183;51.380;0.098;2024-03-22T01:05:59;10.60;88.40
63094;DHT22;49183;51.380;0.098;2024-03-22T01:08:25;10.60;88.40
63094;DHT22;49183;51.380;0.098;2024-03-22T01:10:52;10.60;88.50
63094;DHT22;49183;51.380;0.098;2024-03-22T01:13:19;10.60;88.50
63094;DHT22;49183;51.380;0.098;2024-03-22T01:15:45;10.60;88.60
63094;DHT22;49183;51.380;0.098;2024-03-22T01:18:15;10.60;88.60
63094;DHT22;49183;51.380;0.098;2024-03-22T01:20:41;10.60;88.70
63094;DHT22;49183;51.380;0.098;2024-03-22T01:23:08;10.50;88.70
63094;DHT22;49183;51.380;0.098;2024-03-22T01:25:35;10.40;88.80
63094;DHT22;49183;51.380;0.098;2024-03-22T01:28:02;10.40;88.90
63094;DHT22;49183;51.380;0.098;2024-03-22T01:30:30;10.30;89.10
63094;DHT22;49183;51.380;0.098;2024-03-22T01:32:57;10.20;89.50
63094;DHT22;49183;51.380;0.098;2024-03-22T01:35:24;10.10;89.80
63094;DHT22;49183;51.380;0.098;2024-03-22T01:37:50;10.00;89.90
63094;DHT22;49183;51.380;0.098;2024-03-22T01:40:17;9.90;90.00
63094;DHT22;49183;51.380;0.098;2024-03-22T01:42:43;9.80;90.20
63094;DHT22;49183;51.380;0.098;2024-03-22T01:45:12;9.70;90.30
63094;DHT22;49183;51.380;0.098;2024-03-22T01:47:40;9.60;90.50
63094;DHT22;49183;51.380;0.098;2024-03-22T01:50:08;9.60;90.70
63094;DHT22;49183;51.380;0.098;2024-03-22T01:52:36;9.40;90.80
63094;DHT22;49183;51.380;0.098;2024-03-22T01:55:03;9.40;90.90
63094;DHT22;49183;51.380;0.098;2024-03-22T01:57:33;9.30;90.90
63094;DHT22;49183;51.380;0.098;2024-03-22T02:00:00;9.30;91.00
63094;DHT22;49183;51.380;0.098;2024-03-22T02:02:26;9.30;91.10
63094;DHT22;49183;51.380;0.098;2024-03-22T02:04:53;9.20;91.10
63094;DHT22;49183;51.380;0.098;2024-03-22T02:07:21;9.20;91.20
63094;DHT22;49183;51.380;0.098;2024-03-22T02:09:47;9.10;91.20
63094;DHT22;49183;51.380;0.098;2024-03-22T02:12:14;9.10;91.30
63094;DHT22;49183;51.380;0.098;2024-03-22T02:14:42;9.00;91.30
63094;DHT22;49183;51.380;0.098;2024-03-22T02:17:09;9.00;91.30
63094;DHT22;49183;51.380;0.098;2024-03-22T02:19:35;9.00;91.40
63094;DHT22;49183;51.380;0.098;2024-03-22T02:22:02;9.00;91.40
63094;DHT22;49183;51.380;0.098;2024-03-22T02:24:28;9.00;91.20
63094;DHT22;49183;51.380;0.098;2024-03-22T02:26:55;9.00;90.80
63094;DHT22;49183;51.380;0.098;2024-03-22T02:29:22;9.00;90.50
63094;DHT22;49183;51.380;0.098;2024-03-22T02:31:48;9.00;90.20
63094;DHT22;49183;51.380;0.098;2024-03-22T02:34:15;8.90;90.00
63094;DHT22;49183;51.380;0.098;2024-03-22T02:36:42;8.80;89.90
63094;DHT22;49183;51.380;0.098;2024-03-22T02:39:08;8.80;89.80
63094;DHT22;49183;51.380;0.098;2024-03-22T02:41:35;8.70;89.70
63094;DHT22;49183;51.380;0.098;2024-03-22T02:44:02;8.60;89.80
63094;DHT22;49183;51.380;0.098;2024-03-22T02:46:29;8.50;89.90
63094;DHT22;49183;51.380;0.098;2024-03-22T02:48:55;8.50;90.00
63094;DHT22;49183;51.380;0.098;2024-03-22T02:51:22;8.40;90.00
63094;DHT22;49183;51.380;0.098;2024-03-22T02:53:49;8.40;90.10
63094;DHT22;49183;51.380;0.098;2024-03-22T02:56:16;8.30;90.20
63094;DHT22;49183;51.380;0.098;2024-03-22T02:58:43;8.30;90.20
63094;DHT22;49183;51.380;0.098;2024-03-22T03:01:09;8.20;90.20
63094;DHT22;49183;51.380;0.098;2024-03-22T03:03:36;8.20;90.20
63094;DHT22;49183;51.380;0.098;2024-03-22T03:06:03;8.20;90.30
63094;DHT22;49183;51.380;0.098;2024-03-22T03:08:29;8.20;90.30
63094;DHT22;49183;51.380;0.098;2024-03-22T03:10:56;8.10;90.30
63094;DHT22;49183;51.380;0.098;2024-03-22T03:13:22;8.10;90.30
63094;DHT22;49183;51.380;0.098;2024-03-22T03:15:49;8.10;90.30
63094;DHT22;49183;51.380;0.098;2024-03-22T03:18:16;8.10;90.40
63094;DHT22;49183;51.380;0.098;2024-03-22T03:20:43;8.10;90.40
63094;DHT22;49183;51.380;0.098;2024-03-22T03:23:10;8.10;90.40
63094;DHT22;49183;51.380;0.098;2024-03-22T03:25:37;8.00;90.40
63094;DHT22;49183;51.380;0.098;2024-03-22T03:28:03;8.10;90.50
63094;DHT22;49183;51.380;0.098;2024-03-22T03:30:30;8.00;90.50
63094;DHT22;49183;51.380;0.098;2024-03-22T03:32:57;8.10;90.50
63094;DHT22;49183;51.380;0.098;2024-03-22T03:35:23;8.00;90.50
63094;DHT22;49183;51.380;0.098;2024-03-22T03:37:52;8.10;90.50
63094;DHT22;49183;51.380;0.098;2024-03-22T03:40:18;8.00;90.60
63094;DHT22;49183;51.380;0.098;2024-03-22T03:42:45;8.10;90.60
63094;DHT22;49183;51.380;0.098;2024-03-22T03:45:12;8.10;90.60
63094;DHT22;49183;51.380;0.098;2024-03-22T03:47:39;8.00;90.60
63094;DHT22;49183;51.380;0.098;2024-03-22T03:50:06;8.00;90.70
63094;DHT22;49183;51.380;0.098;2024-03-22T03:52:33;8.00;90.70
63094;DHT22;49183;51.380;0.098;2024-03-22T03:55:00;8.10;90.80
63094;DHT22;49183;51.380;0.098;2024-03-22T03:57:26;8.00;90.80
63094;DHT22;49183;51.380;0.098;2024-03-22T03:59:53;8.10;90.80
63094;DHT22;49183;51.380;0.098;2024-03-22T04:02:20;8.10;90.90
63094;DHT22;49183;51.380;0.098;2024-03-22T04:04:47;8.00;90.90
63094;DHT22;49183;51.380;0.098;2024-03-22T04:07:14;8.00;90.90
63094;DHT22;49183;51.380;0.098;2024-03-22T04:09:40;8.00;90.90
63094;DHT22;49183;51.380;0.098;2024-03-22T04:12:07;8.00;90.90
63094;DHT22;49183;51.380;0.098;2024-03-22T04:14:34;8.00;90.90
63094;DHT22;49183;51.380;0.098;2024-03-22T04:17:00;7.90;90.90
63094;DHT22;49183;51.380;0.098;2024-03-22T04:19:27;7.90;90.90
63094;DHT22;49183;51.380;0.098;2024-03-22T04:21:53;7.90;90.90
63094;DHT22;49183;51.380;0.098;2024-03-22T04:24:20;7.90;90.90
63094;DHT22;49183;51.380;0.098;2024-03-22T04:26:47;7.90;90.90
63094;DHT22;49183;51.380;0.098;2024-03-22T04:29:14;8.00;90.90
63094;DHT22;49183;51.380;0.098;2024-03-22T04:31:41;7.90;90.80
63094;DHT22;49183;51.380;0.098;2024-03-22T04:34:08;8.00;90.80
63094;DHT22;49183;51.380;0.098;2024-03-22T04:36:36;8.00;90.80
63094;DHT22;49183;51.380;0.098;2024-03-22T04:39:03;8.00;90.70
63094;DHT22;49183;51.380;0.098;2024-03-22T04:41:30;8.00;90.60
63094;DHT22;49183;51.380;0.098;2024-03-22T04:43:57;8.00;90.60
63094;DHT22;49183;51.380;0.098;2024-03-22T04:46:23;8.00;90.50
63094;DHT22;49183;51.380;0.098;2024-03-22T04:48:50;8.00;90.40
63094;DHT22;49183;51.380;0.098;2024-03-22T04:51:17;8.00;90.40
63094;DHT22;49183;51.380;0.098;2024-03-22T04:53:44;8.10;90.30
63094;DHT22;49183;51.380;0.098;2024-03-22T04:56:11;8.10;90.20
63094;DHT22;49183;51.380;0.098;2024-03-22T04:58:37;8.10;90.10
63094;DHT22;49183;51.380;0.098;2024-03-22T05:01:04;8.00;90.10
63094;DHT22;49183;51.380;0.098;2024-03-22T05:03:30;8.10;90.00
63094;DHT22;49183;51.380;0.098;2024-03-22T05:05:57;8.10;90.00
63094;DHT22;49183;51.380;0.098;2024-03-22T05:08:24;8.10;90.00
63094;DHT22;49183;51.380;0.098;2024-03-22T05:10:52;8.10;90.00
63094;DHT22;49183;51.380;0.098;2024-03-22T05:13:19;8.10;90.00
63094;DHT22;49183;51.380;0.098;2024-03-22T05:15:46;8.10;89.90
63094;DHT22;49183;51.380;0.098;2024-03-22T05:18:13;8.10;89.90
63094;DHT22;49183;51.380;0.098;2024-03-22T05:20:39;8.10;89.90
63094;DHT22;49183;51.380;0.098;2024-03-22T05:23:06;8.10;89.90
63094;DHT22;49183;51.380;0.098;2024-03-22T05:25:32;8.10;89.90
63094;DHT22;49183;51.380;0.098;2024-03-22T05:27:59;8.20;89.80
63094;DHT22;49183;51.380;0.098;2024-03-22T05:30:26;8.20;89.90
63094;DHT22;49183;51.380;0.098;2024-03-22T05:32:52;8.20;89.90
63094;DHT22;49183;51.380;0.098;2024-03-22T05:35:19;8.20;89.90
63094;DHT22;49183;51.380;0.098;2024-03-22T05:37:46;8.20;89.90
63094;DHT22;49183;51.380;0.098;2024-03-22T05:40:15;8.10;89.90
63094;DHT22;49183;51.380;0.098;2024-03-22T05:42:42;8.20;89.90
63094;DHT22;49183;51.380;0.098;2024-03-22T05:45:09;8.10;89.90
63094;DHT22;49183;51.380;0.098;2024-03-22T05:47:36;8.10;90.00
63094;DHT22;49183;51.380;0.098;2024-03-22T05:50:04;8.00;90.10
63094;DHT22;49183;51.380;0.098;2024-03-22T05:52:34;8.00;90.10
63094;DHT22;49183;51.380;0.098;2024-03-22T05:55:01;8.00;90.10
63094;DHT22;49183;51.380;0.098;2024-03-22T05:57:27;7.90;90.20
63094;DHT22;49183;51.380;0.098;2024-03-22T05:59:54;7.90;90.20
63094;DHT22;49183;51.380;0.098;2024-03-22T06:02:21;7.90;90.30
63094;DHT22;49183;51.380;0.098;2024-03-22T06:04:48;7.80;90.30
63094;DHT22;49183;51.380;0.098;2024-03-22T06:07:15;7.90;90.40
63094;DHT22;49183;51.380;0.098;2024-03-22T06:09:43;7.90;90.40
63094;DHT22;49183;51.380;0.098;2024-03-22T06:12:13;7.90;90.30
63094;DHT22;49183;51.380;0.098;2024-03-22T06:14:41;7.80;90.30
63094;DHT22;49183;51.380;0.098;2024-03-22T06:17:09;7.80;90.30
63094;DHT22;49183;51.380;0.098;2024-03-22T06:19:36;7.80;90.20
63094;DHT22;49183;51.380;0.098;2024-03-22T06:22:04;7.70;90.20
63094;DHT22;49183;51.380;0.098;2024-03-22T06:24:30;7.70;89.90
63094;DHT22;49183;51.380;0.098;2024-03-22T06:26:57;7.70;89.70
63094;DHT22;49183;51.380;0.098;2024-03-22T06:29:24;7.70;89.40
63094;DHT22;49183;51.380;0.098;2024-03-22T06:31:51;7.60;88.90
63094;DHT22;49183;51.380;0.098;2024-03-22T06:34:19;7.60;88.30
63094;DHT22;49183;51.380;0.098;2024-03-22T06:36:46;7.60;87.80
63094;DHT22;49183;51.380;0.098;2024-03-22T06:39:13;7.60;87.20
63094;DHT22;49183;51.380;0.098;2024-03-22T06:41:41;7.60;86.50
63094;DHT22;49183;51.380;0.098;2024-03-22T06:44:07;7.60;86.10
63094;DHT22;49183;51.380;0.098;2024-03-22T06:46:39;7.50;85.40
63094;DHT22;49183;51.380;0.098;2024-03-22T06:49:06;7.50;85.00
63094;DHT22;49183;51.380;0.098;2024-03-22T06:51:33;7.50;84.80
63094;DHT22;49183;51.380;0.098;2024-03-22T06:54:00;7.50;84.40
63094;DHT22;49183;51.380;0.098;2024-03-22T06:56:26;7.50;84.20
63094;DHT22;49183;51.380;0.098;2024-03-22T06:58:53;7.50;84.20
63094;DHT22;49183;51.380;0.098;2024-03-22T07:01:20;7.50;84.20
63094;DHT22;49183;51.380;0.098;2024-03-22T07:03:47;7.50;84.10
63094;DHT22;49183;51.380;0.098;2024-03-22T07:06:14;7.50;83.90
63094;DHT22;49183;51.380;0.098;2024-03-22T07:08:41;7.60;83.90
63094;DHT22;49183;51.380;0.098;2024-03-22T07:11:08;7.60;83.80
63094;DHT22;49183;51.380;0.098;2024-03-22T07:13:35;7.60;83.80
63094;DHT22;49183;51.380;0.098;2024-03-22T07:16:02;7.60;83.70
63094;DHT22;49183;51.380;0.098;2024-03-22T07:18:30;7.60;83.70
63094;DHT22;49183;51.380;0.098;2024-03-22T07:20:58;7.60;83.60
63094;DHT22;49183;51.380;0.098;2024-03-22T07:23:28;7.60;83.60
63094;DHT22;49183;51.380;0.098;2024-03-22T07:25:55;7.70;83.40
63094;DHT22;49183;51.380;0.098;2024-03-22T07:28:22;7.70;83.40
63094;DHT22;49183;51.380;0.098;2024-03-22T07:30:49;7.70;83.30
63094;DHT22;49183;51.380;0.098;2024-03-22T07:33:15;7.70;83.40
63094;DHT22;49183;51.380;0.098;2024-03-22T07:35:44;7.70;83.40
63094;DHT22;49183;51.380;0.098;2024-03-22T07:38:11;7.70;83.50
63094;DHT22;49183;51.380;0.098;2024-03-22T07:40:39;7.80;83.50
63094;DHT22;49183;51.380;0.098;2024-03-22T07:43:06;7.80;83.40
63094;DHT22;49183;51.380;0.098;2024-03-22T07:45:34;7.80;83.50
63094;DHT22;49183;51.380;0.098;2024-03-22T07:48:01;7.80;83.30
63094;DHT22;49183;51.380;0.098;2024-03-22T07:50:28;7.80;83.20
63094;DHT22;49183;51.380;0.098;2024-03-22T07:52:55;7.80;83.10
63094;DHT22;49183;51.380;0.098;2024-03-22T07:55:22;7.90;83.10
63094;DHT22;49183;51.380;0.098;2024-03-22T07:57:49;7.90;83.00
63094;DHT22;49183;51.380;0.098;2024-03-22T08:00:16;8.00;82.80
63094;DHT22;49183;51.380;0.098;2024-03-22T08:02:43;8.00;82.40
63094;DHT22;49183;51.380;0.098;2024-03-22T08:05:09;8.00;82.10
63094;DHT22;49183;51.380;0.098;2024-03-22T08:07:36;8.10;82.00
63094;DHT22;49183;51.380;0.098;2024-03-22T08:10:03;8.10;81.80
63094;DHT22;49183;51.380;0.098;2024-03-22T08:12:30;8.10;81.50
63094;DHT22;49183;51.380;0.098;2024-03-22T08:14:57;8.20;81.30
63094;DHT22;49183;51.380;0.098;2024-03-22T08:17:24;8.20;81.30
63094;DHT22;49183;51.380;0.098;2024-03-22T08:19:51;8.20;81.10
63094;DHT22;49183;51.380;0.098;2024-03-22T08:22:17;8.30;81.20
63094;DHT22;49183;51.380;0.098;2024-03-22T08:24:45;8.30;81.10
63094;DHT22;49183;51.380;0.098;2024-03-22T08:27:12;8.30;81.10
63094;DHT22;49183;51.380;0.098;2024-03-22T08:29:40;8.40;81.00
63094;DHT22;49183;51.380;0.098;2024-03-22T08:32:07;8.40;81.00
63094;DHT22;49183;51.380;0.098;2024-03-22T08:34:34;8.50;80.90
63094;DHT22;49183;51.380;0.098;2024-03-22T08:37:00;8.60;80.90
63094;DHT22;49183;51.380;0.098;2024-03-22T08:39:27;8.70;80.50
63094;DHT22;49183;51.380;0.098;2024-03-22T08:41:54;8.70;80.20
63094;DHT22;49183;51.380;0.098;2024-03-22T08:44:21;8.70;79.60
63094;DHT22;49183;51.380;0.098;2024-03-22T08:46:48;8.70;79.40
63094;DHT22;49183;51.380;0.098;2024-03-22T08:49:16;8.70;79.50
63094;DHT22;49183;51.380;0.098;2024-03-22T08:51:45;8.80;79.40
63094;DHT22;49183;51.380;0.098;2024-03-22T08:54:12;8.80;79.30
63094;DHT22;49183;51.380;0.098;2024-03-22T08:56:39;8.80;79.40
63094;DHT22;49183;51.380;0.098;2024-03-22T08:59:06;8.90;79.40
63094;DHT22;49183;51.380;0.098;2024-03-22T09:01:32;9.00;79.20
63094;DHT22;49183;51.380;0.098;2024-03-22T09:03:59;9.10;78.80
63094;DHT22;49183;51.380;0.098;2024-03-22T09:06:26;9.00;77.90
63094;DHT22;49183;51.380;0.098;2024-03-22T09:08:52;9.10;77.70
63094;DHT22;49183;51.380;0.098;2024-03-22T09:11:22;9.20;77.70
63094;DHT22;49183;51.380;0.098;2024-03-22T09:13:52;9.30;77.00
63094;DHT22;49183;51.380;0.098;2024-03-22T09:16:20;9.30;76.70
63094;DHT22;49183;51.380;0.098;2024-03-22T09:18:46;9.40;76.70
63094;DHT22;49183;51.380;0.098;2024-03-22T09:21:13;9.40;76.00
63094;DHT22;49183;51.380;0.098;2024-03-22T09:23:40;9.50;75.80
63094;DHT22;49183;51.380;0.098;2024-03-22T09:26:07;9.40;75.30
63094;DHT22;49183;51.380;0.098;2024-03-22T09:28:34;9.30;74.90
63094;DHT22;49183;51.380;0.098;2024-03-22T09:31:07;9.30;75.20
63094;DHT22;49183;51.380;0.098;2024-03-22T09:33:34;9.20;75.60
63094;DHT22;49183;51.380;0.098;2024-03-22T09:36:00;9.30;76.10
63094;DHT22;49183;51.380;0.098;2024-03-22T09:38:27;9.30;76.10
63094;DHT22;49183;51.380;0.098;2024-03-22T09:40:54;9.40;75.60
63094;DHT22;49183;51.380;0.098;2024-03-22T09:43:22;9.50;75.50
63094;DHT22;49183;51.380;0.098;2024-03-22T09:45:49;9.60;75.10
63094;DHT22;49183;51.380;0.098;2024-03-22T09:48:20;9.60;74.10
63094;DHT22;49183;51.380;0.098;2024-03-22T09:50:46;9.70;74.50
63094;DHT22;49183;51.380;0.098;2024-03-22T09:53:21;9.80;73.60
63094;DHT22;49183;51.380;0.098;2024-03-22T09:55:49;9.80;73.20
63094;DHT22;49183;51.380;0.098;2024-03-22T09:58:16;9.80;72.60
63094;DHT22;49183;51.380;0.098;2024-03-22T10:00:43;9.80;72.30
63094;DHT22;49183;51.380;0.098;2024-03-22T10:03:10;9.80;72.70
63094;DHT22;49183;51.380;0.098;2024-03-22T10:05:37;9.90;73.00
63094;DHT22;49183;51.380;0.098;2024-03-22T10:08:04;10.00;72.30
63094;DHT22;49183;51.380;0.098;2024-03-22T10:10:34;9.90;71.30
63094;DHT22;49183;51.380;0.098;2024-03-22T10:13:02;9.90;71.80
63094;DHT22;49183;51.380;0.098;2024-03-22T10:15:29;10.00;72.40
63094;DHT22;49183;51.380;0.098;2024-03-22T10:17:57;10.00;71.70
63094;DHT22;49183;51.380;0.098;2024-03-22T10:20:25;9.90;71.60
63094;DHT22;49183;51.380;0.098;2024-03-22T10:22:57;9.90;71.60
63094;DHT22;49183;51.380;0.098;2024-03-22T10:25:26;9.90;71.10
63094;DHT22;49183;51.380;0.098;2024-03-22T10:27:53;9.90;71.50
63094;DHT22;49183;51.380;0.098;2024-03-22T10:30:23;10.00;71.90
63094;DHT22;49183;51.380;0.098;2024-03-22T10:32:51;10.20;70.80
63094;DHT22;49183;51.380;0.098;2024-03-22T10:35:18;10.40;71.00
63094;DHT22;49183;51.380;0.098;2024-03-22T10:37:45;10.70;70.60
63094;DHT22;49183;51.380;0.098;2024-03-22T10:40:12;10.90;68.90
63094;DHT22;49183;51.380;0.098;2024-03-22T10:42:41;10.90;68.50
63094;DHT22;49183;51.380;0.098;2024-03-22T10:45:09;10.80;66.60
63094;DHT22;49183;51.380;0.098;2024-03-22T10:47:37;10.60;64.80
63094;DHT22;49183;51.380;0.098;2024-03-22T10:50:09;10.60;64.50
63094;DHT22;49183;51.380;0.098;2024-03-22T10:52:42;10.50;64.30
63094;DHT22;49183;51.380;0.098;2024-03-22T10:55:24;10.40;64.70
63094;DHT22;49183;51.380;0.098;2024-03-22T10:57:58;10.30;63.80
63094;DHT22;49183;51.380;0.098;2024-03-22T11:00:29;10.20;64.30
63094;DHT22;49183;51.380;0.098;2024-03-22T11:02:56;10.30;65.00
63094;DHT22;49183;51.380;0.098;2024-03-22T11:05:23;10.50;65.50
63094;DHT22;49183;51.380;0.098;2024-03-22T11:08:10;10.80;64.90
63094;DHT22;49183;51.380;0.098;2024-03-22T11:10:37;11.10;62.10
63094;DHT22;49183;51.380;0.098;2024-03-22T11:13:05;11.20;61.90
63094;DHT22;49183;51.380;0.098;2024-03-22T11:15:33;11.30;61.40
63094;DHT22;49183;51.380;0.098;2024-03-22T11:18:01;11.30;61.70
63094;DHT22;49183;51.380;0.098;2024-03-22T11:20:28;11.40;62.20
63094;DHT22;49183;51.380;0.098;2024-03-22T11:22:56;11.50;61.70
63094;DHT22;49183;51.380;0.098;2024-03-22T11:25:23;11.50;61.50
63094;DHT22;49183;51.380;0.098;2024-03-22T11:27:49;11.40;60.90
63094;DHT22;49183;51.380;0.098;2024-03-22T11:30:16;11.30;59.00
63094;DHT22;49183;51.380;0.098;2024-03-22T11:32:43;11.30;59.50
63094;DHT22;49183;51.380;0.098;2024-03-22T11:35:12;11.20;60.30
63094;DHT22;49183;51.380;0.098;2024-03-22T11:37:40;11.10;60.40
63094;DHT22;49183;51.380;0.098;2024-03-22T11:40:11;11.00;60.90
63094;DHT22;49183;51.380;0.098;2024-03-22T11:42:39;10.90;61.60
63094;DHT22;49183;51.380;0.098;2024-03-22T11:45:09;11.00;62.20
63094;DHT22;49183;51.380;0.098;2024-03-22T11:47:37;11.20;61.50
63094;DHT22;49183;51.380;0.098;2024-03-22T11:50:04;11.30;60.50
63094;DHT22;49183;51.380;0.098;2024-03-22T11:52:31;11.30;60.30
63094;DHT22;49183;51.380;0.098;2024-03-22T11:54:58;11.10;60.10
63094;DHT22;49183;51.380;0.098;2024-03-22T11:57:25;10.80;59.20
63094;DHT22;49183;51.380;0.098;2024-03-22T11:59:59;10.50;59.80
63094;DHT22;49183;51.380;0.098;2024-03-22T12:02:26;10.30;59.90
63094;DHT22;49183;51.380;0.098;2024-03-22T12:04:53;10.10;60.20
63094;DHT22;49183;51.380;0.098;2024-03-22T12:07:19;10.00;60.70
63094;DHT22;49183;51.380;0.098;2024-03-22T12:09:46;9.90;60.90
63094;DHT22;49183;51.380;0.098;2024-03-22T12:12:14;10.00;61.00
63094;DHT22;49183;51.380;0.098;2024-03-22T12:14:41;10.30;61.10
63094;DHT22;49183;51.380;0.098;2024-03-22T12:17:07;10.50;60.50
63094;DHT22;49183;51.380;0.098;2024-03-22T12:19:35;10.60;58.50
63094;DHT22;49183;51.380;0.098;2024-03-22T12:22:01;10.70;57.60
63094;DHT22;49183;51.380;0.098;2024-03-22T12:24:28;10.70;54.10
63094;DHT22;49183;51.380;0.098;2024-03-22T12:26:55;10.60;53.40
63094;DHT22;49183;51.380;0.098;2024-03-22T12:29:22;10.60;53.30
63094;DHT22;49183;51.380;0.098;2024-03-22T12:31:48;10.60;54.30
63094;DHT22;49183;51.380;0.098;2024-03-22T12:34:16;10.70;54.10
63094;DHT22;49183;51.380;0.098;2024-03-22T12:36:44;10.80;54.10
63094;DHT22;49183;51.380;0.098;2024-03-22T12:39:11;10.90;54.40
63094;DHT22;49183;51.380;0.098;2024-03-22T12:41:38;11.10;55.30
63094;DHT22;49183;51.380;0.098;2024-03-22T12:44:04;11.30;55.20
63094;DHT22;49183;51.380;0.098;2024-03-22T12:46:31;11.30;55.60
63094;DHT22;49183;51.380;0.098;2024-03-22T12:48:58;11.40;55.90
63094;DHT22;49183;51.380;0.098;2024-03-22T12:51:24;11.50;55.70
63094;DHT22;49183;51.380;0.098;2024-03-22T12:53:52;11.40;54.60
63094;DHT22;49183;51.380;0.098;2024-03-22T12:56:18;11.30;55.00
63094;DHT22;49183;51.380;0.098;2024-03-22T12:58:46;11.20;55.50
63094;DHT22;49183;51.380;0.098;2024-03-22T13:01:13;11.20;56.30
63094;DHT22;49183;51.380;0.098;2024-03-22T13:03:40;11.20;56.40
63094;DHT22;49183;51.380;0.098;2024-03-22T13:06:07;11.20;55.60
63094;DHT22;49183;51.380;0.098;2024-03-22T13:08:34;11.00;53.60
63094;DHT22;49183;51.380;0.098;2024-03-22T13:11:00;10.80;53.40
63094;DHT22;49183;51.380;0.098;2024-03-22T13:13:27;10.60;53.80
63094;DHT22;49183;51.380;0.098;2024-03-22T13:15:56;10.60;54.30
63094;DHT22;49183;51.380;0.098;2024-03-22T13:18:23;10.60;54.20
63094;DHT22;49183;51.380;0.098;2024-03-22T13:20:50;10.70;54.30
63094;DHT22;49183;51.380;0.098;2024-03-22T13:23:16;10.80;53.90
63094;DHT22;49183;51.380;0.098;2024-03-22T13:25:43;10.80;53.80
63094;DHT22;49183;51.380;0.098;2024-03-22T13:28:10;10.80;53.70
63094;DHT22;49183;51.380;0.098;2024-03-22T13:30:36;10.80;54.10
63094;DHT22;49183;51.380;0.098;2024-03-22T13:33:04;11.00;54.20
63094;DHT22;49183;51.380;0.098;2024-03-22T13:35:30;11.00;54.60
63094;DHT22;49183;51.380;0.098;2024-03-22T13:37:59;11.10;54.20
63094;DHT22;49183;51.380;0.098;2024-03-22T13:40:27;11.20;53.10
63094;DHT22;49183;51.380;0.098;2024-03-22T13:42:54;11.20;51.30
63094;DHT22;49183;51.380;0.098;2024-03-22T13:45:21;11.20;50.20
63094;DHT22;49183;51.380;0.098;2024-03-22T13:47:48;11.10;50.80
63094;DHT22;49183;51.380;0.098;2024-03-22T13:50:15;11.20;51.30
63094;DHT22;49183;51.380;0.098;2024-03-22T13:52:42;11.20;50.70
63094;DHT22;49183;51.380;0.098;2024-03-22T13:55:09;11.20;51.40
63094;DHT22;49183;51.380;0.098;2024-03-22T13:57:35;11.30;51.90
63094;DHT22;49183;51.380;0.098;2024-03-22T14:00:03;11.40;51.90
63094;DHT22;49183;51.380;0.098;2024-03-22T14:02:39;11.50;50.30
63094;DHT22;49183;51.380;0.098;2024-03-22T14:05:05;11.40;49.30
63094;DHT22;49183;51.380;0.098;2024-03-22T14:07:35;11.20;49.50
63094;DHT22;49183;51.380;0.098;2024-03-22T14:10:02;11.10;50.10
63094;DHT22;49183;51.380;0.098;2024-03-22T14:12:29;11.00;49.80
63094;DHT22;49183;51.380;0.098;2024-03-22T14:14:56;10.90;51.00
63094;DHT22;49183;51.380;0.098;2024-03-22T14:17:23;10.80;50.80
63094;DHT22;49183;51.380;0.098;2024-03-22T14:19:49;10.70;51.30
63094;DHT22;49183;51.380;0.098;2024-03-22T14:22:16;10.70;51.90
63094;DHT22;49183;51.380;0.098;2024-03-22T14:24:43;10.70;52.30
63094;DHT22;49183;51.380;0.098;2024-03-22T14:27:09;10.80;53.00
63094;DHT22;49183;51.380;0.098;2024-03-22T14:29:36;11.00;53.10
63094;DHT22;49183;51.380;0.098;2024-03-22T14:32:04;11.00;51.90
63094;DHT22;49183;51.380;0.098;2024-03-22T14:34:33;11.10;51.80
63094;DHT22;49183;51.380;0.098;2024-03-22T14:37:00;11.20;51.00
63094;DHT22;49183;51.380;0.098;2024-03-22T14:39:26;11.40;50.10
63094;DHT22;49183;51.380;0.098;2024-03-22T14:41:53;11.50;49.20
63094;DHT22;49183;51.380;0.098;2024-03-22T14:44:21;11.50;46.90
63094;DHT22;49183;51.380;0.098;2024-03-22T14:46:48;11.40;46.90
63094;DHT22;49183;51.380;0.098;2024-03-22T14:49:15;11.40;45.50
63094;DHT22;49183;51.380;0.098;2024-03-22T14:51:42;11.30;45.30
63094;DHT22;49183;51.380;0.098;2024-03-22T14:54:09;11.30;44.80
63094;DHT22;49183;51.380;0.098;2024-03-22T14:56:36;11.20;45.40
63094;DHT22;49183;51.380;0.098;2024-03-22T14:59:02;11.20;45.90
63094;DHT22;49183;51.380;0.098;2024-03-22T15:01:30;11.20;47.10
63094;DHT22;49183;51.380;0.098;2024-03-22T15:03:56;11.30;48.00
63094;DHT22;49183;51.380;0.098;2024-03-22T15:06:23;11.40;47.80
63094;DHT22;49183;51.380;0.098;2024-03-22T15:08:49;11.60;47.20
63094;DHT22;49183;51.380;0.098;2024-03-22T15:11:16;11.70;47.30
63094;DHT22;49183;51.380;0.098;2024-03-22T15:13:43;11.70;47.20
63094;DHT22;49183;51.380;0.098;2024-03-22T15:16:10;11.70;48.10
63094;DHT22;49183;51.380;0.098;2024-03-22T15:18:37;11.70;48.50
63094;DHT22;49183;51.380;0.098;2024-03-22T15:21:04;11.70;49.20
63094;DHT22;49183;51.380;0.098;2024-03-22T15:23:30;11.70;49.30
63094;DHT22;49183;51.380;0.098;2024-03-22T15:25:57;11.50;49.60
63094;DHT22;49183;51.380;0.098;2024-03-22T15:28:24;11.30;49.90
63094;DHT22;49183;51.380;0.098;2024-03-22T15:30:52;11.10;50.10
63094;DHT22;49183;51.380;0.098;2024-03-22T15:33:18;10.80;50.80
63094;DHT22;49183;51.380;0.098;2024-03-22T15:35:45;10.80;50.70
63094;DHT22;49183;51.380;0.098;2024-03-22T15:38:16;10.80;50.60
63094;DHT22;49183;51.380;0.098;2024-03-22T15:40:43;10.80;50.40